sensor_id;sensor_type;location;lat;lon;timestamp;P1;durP1;ratioP1;P2;durP2;ratioP2
10096;SDS011;5087;42.662;23.466;2023-03-07T00:02:13;5.00;;;4.90;;
10096;SDS011;5087;42.662;23.466;2023-03-07T00:04:43;5.33;;;5.23;;
10096;SDS011;5087;42.662;23.466;2023-03-07T00:07:10;4.60;;;4.50;;
10096;SDS011;5087;42.662;23.466;2023-03-07T00:09:40;4.60;;;4.50;;
10096;SDS011;5087;42.662;23.466;2023-03-07T00:12:10;4.40;;;4.30;;
10096;SDS011;5087;42.662;23.466;2023-03-07T00:14:38;4.20;;;4.10;;
10096;SDS011;5087;42.662;23.466;2023-03-07T00:17:05;4.10;;;4.00;;
10096;SDS011;5087;42.662;23.466;2023-03-07T00:19:34;3.80;;;3.80;;
10096;SDS011;5087;42.662;23.466;2023-03-07T00:22:01;3.47;;;3.47;;
10096;SDS011;5087;42.662;23.466;2023-03-07T00:24:29;3.80;;;3.80;;
10096;SDS011;5087;42.662;23.466;2023-03-07T00:26:56;3.40;;;3.40;;
10096;SDS011;5087;42.662;23.466;2023-03-07T00:29:23;3.53;;;3.53;;
10096;SDS011;5087;42.662;23.466;2023-03-07T00:31:51;3.40;;;3.40;;
10096;SDS011;5087;42.662;23.466;2023-03-07T00:34:18;4.00;;;3.90;;
10096;SDS011;5087;42.662;23.466;2023-03-07T00:36:47;3.53;;;3.53;;
10096;SDS011;5087;42.662;23.466;2023-03-07T00:39:14;3.30;;;3.30;;
10096;SDS011;5087;42.662;23.466;2023-03-07T00:41:42;3.10;;;3.10;;
10096;SDS011;5087;42.662;23.466;2023-03-07T00:44:12;3.20;;;3.20;;
10096;SDS011;5087;42.662;23.466;2023-03-07T00:46:42;3.20;;;3.20;;
10096;SDS011;5087;42.662;23.466;2023-03-07T00:49:10;2.70;;;2.70;;
10096;SDS011;5087;42.662;23.466;2023-03-07T00:51:37;2.70;;;2.70;;
10096;SDS011;5087;42.662;23.466;2023-03-07T00:54:12;2.70;;;2.70;;
10096;SDS011;5087;42.662;23.466;2023-03-07T00:56:42;2.60;;;2.60;;
10096;SDS011;5087;42.662;23.466;2023-03-07T00:59:13;2.27;;;2.27;;
10096;SDS011;5087;42.662;23.466;2023-03-07T01:01:40;2.00;;;2.00;;
10096;SDS011;5087;42.662;23.466;2023-03-07T01:04:08;2.00;;;2.00;;
10096;SDS011;5087;42.662;23.466;2023-03-07T01:06:36;2.10;;;2.10;;
10096;SDS011;5087;42.662;23.466;2023-03-07T01:09:07;2.20;;;2.20;;
10096;SDS011;5087;42.662;23.466;2023-03-07T01:11:42;2.33;;;2.30;;
10096;SDS011;5087;42.662;23.466;2023-03-07T01:14:12;2.20;;;2.20;;
10096;SDS011;5087;42.662;23.466;2023-03-07T01:16:39;1.93;;;1.93;;
10096;SDS011;5087;42.662;23.466;2023-03-07T01:19:07;2.10;;;2.10;;
10096;SDS011;5087;42.662;23.466;2023-03-07T01:21:38;1.80;;;1.80;;
10096;SDS011;5087;42.662;23.466;2023-03-07T01:24:07;2.30;;;2.30;;
10096;SDS011;5087;42.662;23.466;2023-03-07T01:26:38;1.60;;;1.60;;
10096;SDS011;5087;42.662;23.466;2023-03-07T01:29:07;1.70;;;1.70;;
10096;SDS011;5087;42.662;23.466;2023-03-07T01:31:37;1.50;;;1.50;;
10096;SDS011;5087;42.662;23.466;2023-03-07T01:34:04;1.40;;;1.40;;
10096;SDS011;5087;42.662;23.466;2023-03-07T01:36:34;1.20;;;1.20;;
10096;SDS011;5087;42.662;23.466;2023-03-07T01:39:07;1.50;;;1.50;;
10096;SDS011;5087;42.662;23.466;2023-03-07T01:41:43;1.30;;;1.30;;
10096;SDS011;5087;42.662;23.466;2023-03-07T01:44:15;1.50;;;1.50;;
10096;SDS011;5087;42.662;23.466;2023-03-07T01:46:45;1.60;;;1.60;;
10096;SDS011;5087;42.662;23.466;2023-03-07T01:49:24;1.80;;;1.80;;
10096;SDS011;5087;42.662;23.466;2023-03-07T01:52:01;2.00;;;2.00;;
10096;SDS011;5087;42.662;23.466;2023-03-07T01:54:32;2.60;;;2.60;;
10096;SDS011;5087;42.662;23.466;2023-03-07T01:57:04;2.67;;;2.67;;
10096;SDS011;5087;42.662;23.466;2023-03-07T01:59:33;2.50;;;2.50;;
10096;SDS011;5087;42.662;23.466;2023-03-07T02:02:08;2.93;;;2.93;;
10096;SDS011;5087;42.662;23.466;2023-03-07T02:04:38;3.93;;;3.83;;
10096;SDS011;5087;42.662;23.466;2023-03-07T02:07:10;3.50;;;3.50;;
10096;SDS011;5087;42.662;23.466;2023-03-07T02:09:40;3.30;;;3.30;;
10096;SDS011;5087;42.662;23.466;2023-03-07T02:12:14;4.00;;;3.90;;
10096;SDS011;5087;42.662;23.466;2023-03-07T02:14:41;3.60;;;3.60;;
10096;SDS011;5087;42.662;23.466;2023-03-07T02:17:11;3.73;;;3.73;;
10096;SDS011;5087;42.662;23.466;2023-03-07T02:19:47;4.03;;;3.93;;
10096;SDS011;5087;42.662;23.466;2023-03-07T02:22:23;3.30;;;3.30;;
10096;SDS011;5087;42.662;23.466;2023-03-07T02:24:52;3.20;;;3.20;;
10096;SDS011;5087;42.662;23.466;2023-03-07T02:27:26;3.60;;;3.60;;
10096;SDS011;5087;42.662;23.466;2023-03-07T02:29:58;3.47;;;3.47;;
10096;SDS011;5087;42.662;23.466;2023-03-07T02:32:26;3.57;;;3.57;;
10096;SDS011;5087;42.662;23.466;2023-03-07T02:34:56;3.70;;;3.70;;
10096;SDS011;5087;42.662;23.466;2023-03-07T02:37:24;3.90;;;3.80;;
10096;SDS011;5087;42.662;23.466;2023-03-07T02:39:58;4.10;;;4.00;;
10096;SDS011;5087;42.662;23.466;2023-03-07T02:42:34;3.97;;;3.90;;
10096;SDS011;5087;42.662;23.466;2023-03-07T02:45:09;3.60;;;3.60;;
10096;SDS011;5087;42.662;23.466;2023-03-07T02:47:40;3.43;;;3.43;;
10096;SDS011;5087;42.662;23.466;2023-03-07T02:50:09;3.60;;;3.60;;
10096;SDS011;5087;42.662;23.466;2023-03-07T02:52:41;3.60;;;3.60;;
10096;SDS011;5087;42.662;23.466;2023-03-07T02:55:09;3.90;;;3.90;;
10096;SDS011;5087;42.662;23.466;2023-03-07T02:57:43;3.70;;;3.70;;
10096;SDS011;5087;42.662;23.466;2023-03-07T03:00:13;4.40;;;4.30;;
10096;SDS011;5087;42.662;23.466;2023-03-07T03:02:42;3.73;;;3.73;;
10096;SDS011;5087;42.662;23.466;2023-03-07T03:05:09;4.30;;;4.20;;
10096;SDS011;5087;42.662;23.466;2023-03-07T03:07:39;4.60;;;4.50;;
10096;SDS011;5087;42.662;23.466;2023-03-07T03:10:08;4.20;;;4.10;;
10096;SDS011;5087;42.662;23.466;2023-03-07T03:12:37;4.10;;;4.00;;
10096;SDS011;5087;42.662;23.466;2023-03-07T03:15:07;3.87;;;3.87;;
10096;SDS011;5087;42.662;23.466;2023-03-07T03:17:36;3.73;;;3.73;;
10096;SDS011;5087;42.662;23.466;2023-03-07T03:20:07;3.80;;;3.70;;
10096;SDS011;5087;42.662;23.466;2023-03-07T03:22:38;4.10;;;4.00;;
10096;SDS011;5087;42.662;23.466;2023-03-07T03:25:07;3.60;;;3.60;;
10096;SDS011;5087;42.662;23.466;2023-03-07T03:27:38;3.60;;;3.60;;
10096;SDS011;5087;42.662;23.466;2023-03-07T03:30:12;3.00;;;3.00;;
10096;SDS011;5087;42.662;23.466;2023-03-07T03:32:40;2.70;;;2.70;;
10096;SDS011;5087;42.662;23.466;2023-03-07T03:35:12;3.53;;;3.53;;
10096;SDS011;5087;42.662;23.466;2023-03-07T03:37:41;3.00;;;3.00;;
10096;SDS011;5087;42.662;23.466;2023-03-07T03:40:18;3.70;;;3.70;;
10096;SDS011;5087;42.662;23.466;2023-03-07T03:42:46;3.60;;;3.60;;
10096;SDS011;5087;42.662;23.466;2023-03-07T03:45:17;3.10;;;3.10;;
10096;SDS011;5087;42.662;23.466;2023-03-07T03:47:45;2.97;;;2.97;;
10096;SDS011;5087;42.662;23.466;2023-03-07T03:50:15;5.33;;;4.70;;
10096;SDS011;5087;42.662;23.466;2023-03-07T03:52:42;3.00;;;3.00;;
10096;SDS011;5087;42.662;23.466;2023-03-07T03:55:10;3.00;;;3.00;;
10096;SDS011;5087;42.662;23.466;2023-03-07T03:57:38;3.20;;;3.20;;
10096;SDS011;5087;42.662;23.466;2023-03-07T04:00:06;3.00;;;3.00;;
10096;SDS011;5087;42.662;23.466;2023-03-07T04:02:40;2.80;;;2.80;;
10096;SDS011;5087;42.662;23.466;2023-03-07T04:05:12;2.80;;;2.80;;
10096;SDS011;5087;42.662;23.466;2023-03-07T04:07:40;2.87;;;2.87;;
10096;SDS011;5087;42.662;23.466;2023-03-07T04:10:07;2.80;;;2.80;;
10096;SDS011;5087;42.662;23.466;2023-03-07T04:12:38;2.90;;;2.90;;
10096;SDS011;5087;42.662;23.466;2023-03-07T04:15:06;2.40;;;2.40;;
10096;SDS011;5087;42.662;23.466;2023-03-07T04:17:34;2.50;;;2.50;;
10096;SDS011;5087;42.662;23.466;2023-03-07T04:20:04;2.70;;;2.70;;
10096;SDS011;5087;42.662;23.466;2023-03-07T04:22:39;2.80;;;2.80;;
10096;SDS011;5087;42.662;23.466;2023-03-07T04:25:06;2.80;;;2.80;;
10096;SDS011;5087;42.662;23.466;2023-03-07T04:27:35;3.73;;;3.50;;
10096;SDS011;5087;42.662;23.466;2023-03-07T04:30:06;3.53;;;3.43;;
10096;SDS011;5087;42.662;23.466;2023-03-07T04:32:34;3.27;;;3.27;;
10096;SDS011;5087;42.662;23.466;2023-03-07T04:35:05;3.00;;;3.00;;
10096;SDS011;5087;42.662;23.466;2023-03-07T04:37:32;2.50;;;2.50;;
10096;SDS011;5087;42.662;23.466;2023-03-07T04:39:59;2.40;;;2.40;;
10096;SDS011;5087;42.662;23.466;2023-03-07T04:42:28;2.50;;;2.50;;
10096;SDS011;5087;42.662;23.466;2023-03-07T04:44:55;2.37;;;2.37;;
10096;SDS011;5087;42.662;23.466;2023-03-07T04:47:23;2.33;;;2.33;;
10096;SDS011;5087;42.662;23.466;2023-03-07T04:49:52;2.10;;;2.10;;
10096;SDS011;5087;42.662;23.466;2023-03-07T04:52:22;2.10;;;2.10;;
10096;SDS011;5087;42.662;23.466;2023-03-07T04:54:51;2.20;;;2.20;;
10096;SDS011;5087;42.662;23.466;2023-03-07T04:57:19;2.70;;;2.70;;
10096;SDS011;5087;42.662;23.466;2023-03-07T04:59:46;2.70;;;2.70;;
10096;SDS011;5087;42.662;23.466;2023-03-07T05:02:14;2.70;;;2.70;;
10096;SDS011;5087;42.662;23.466;2023-03-07T05:04:41;3.00;;;3.00;;
10096;SDS011;5087;42.662;23.466;2023-03-07T05:07:09;3.20;;;3.20;;
10096;SDS011;5087;42.662;23.466;2023-03-07T05:09:38;3.00;;;3.00;;
10096;SDS011;5087;42.662;23.466;2023-03-07T05:12:06;3.00;;;3.00;;
10096;SDS011;5087;42.662;23.466;2023-03-07T05:14:36;3.20;;;3.20;;
10096;SDS011;5087;42.662;23.466;2023-03-07T05:17:04;2.90;;;2.90;;
10096;SDS011;5087;42.662;23.466;2023-03-07T05:19:32;3.20;;;3.20;;
10096;SDS011;5087;42.662;23.466;2023-03-07T05:22:01;3.53;;;3.53;;
10096;SDS011;5087;42.662;23.466;2023-03-07T05:24:29;3.30;;;3.30;;
10096;SDS011;5087;42.662;23.466;2023-03-07T05:26:58;3.17;;;3.17;;
10096;SDS011;5087;42.662;23.466;2023-03-07T05:29:26;2.90;;;2.90;;
10096;SDS011;5087;42.662;23.466;2023-03-07T05:31:54;2.80;;;2.80;;
10096;SDS011;5087;42.662;23.466;2023-03-07T05:34:23;2.90;;;2.90;;
10096;SDS011;5087;42.662;23.466;2023-03-07T05:36:51;3.10;;;3.10;;
10096;SDS011;5087;42.662;23.466;2023-03-07T05:39:18;3.30;;;3.30;;
10096;SDS011;5087;42.662;23.466;2023-03-07T05:41:46;3.57;;;3.57;;
10096;SDS011;5087;42.662;23.466;2023-03-07T05:44:15;3.60;;;3.60;;
10096;SDS011;5087;42.662;23.466;2023-03-07T05:46:42;3.70;;;3.70;;
10096;SDS011;5087;42.662;23.466;2023-03-07T05:49:09;4.00;;;3.90;;
10096;SDS011;5087;42.662;23.466;2023-03-07T05:51:38;3.83;;;3.83;;
10096;SDS011;5087;42.662;23.466;2023-03-07T05:54:05;3.80;;;3.80;;
10096;SDS011;5087;42.662;23.466;2023-03-07T05:56:33;4.80;;;4.70;;
10096;SDS011;5087;42.662;23.466;2023-03-07T05:59:02;4.20;;;4.10;;
10096;SDS011;5087;42.662;23.466;2023-03-07T06:01:33;4.10;;;4.00;;
10096;SDS011;5087;42.662;23.466;2023-03-07T06:04:01;3.60;;;3.60;;
10096;SDS011;5087;42.662;23.466;2023-03-07T06:06:29;3.70;;;3.70;;
10096;SDS011;5087;42.662;23.466;2023-03-07T06:08:57;3.70;;;3.70;;
10096;SDS011;5087;42.662;23.466;2023-03-07T06:11:24;3.80;;;3.80;;
10096;SDS011;5087;42.662;23.466;2023-03-07T06:13:51;3.80;;;3.80;;
10096;SDS011;5087;42.662;23.466;2023-03-07T06:16:20;4.30;;;4.20;;
10096;SDS011;5087;42.662;23.466;2023-03-07T06:18:49;3.90;;;3.90;;
10096;SDS011;5087;42.662;23.466;2023-03-07T06:21:17;3.70;;;3.70;;
10096;SDS011;5087;42.662;23.466;2023-03-07T06:23:45;3.50;;;3.50;;
10096;SDS011;5087;42.662;23.466;2023-03-07T06:26:16;4.53;;;4.30;;
10096;SDS011;5087;42.662;23.466;2023-03-07T06:28:50;4.40;;;4.30;;
10096;SDS011;5087;42.662;23.466;2023-03-07T06:31:18;4.30;;;4.20;;
10096;SDS011;5087;42.662;23.466;2023-03-07T06:33:46;4.57;;;4.47;;
10096;SDS011;5087;42.662;23.466;2023-03-07T06:36:17;4.10;;;4.00;;
10096;SDS011;5087;42.662;23.466;2023-03-07T06:38:51;5.80;;;5.60;;
10096;SDS011;5087;42.662;23.466;2023-03-07T06:41:26;4.20;;;4.10;;
10096;SDS011;5087;42.662;23.466;2023-03-07T06:43:55;4.20;;;4.10;;
10096;SDS011;5087;42.662;23.466;2023-03-07T06:46:26;4.20;;;4.10;;
10096;SDS011;5087;42.662;23.466;2023-03-07T06:48:54;4.20;;;4.10;;
10096;SDS011;5087;42.662;23.466;2023-03-07T06:51:27;4.60;;;4.50;;
10096;SDS011;5087;42.662;23.466;2023-03-07T06:53:56;5.40;;;5.30;;
10096;SDS011;5087;42.662;23.466;2023-03-07T06:56:24;5.00;;;4.90;;
10096;SDS011;5087;42.662;23.466;2023-03-07T06:58:52;5.60;;;5.50;;
10096;SDS011;5087;42.662;23.466;2023-03-07T07:01:20;5.20;;;5.10;;
10096;SDS011;5087;42.662;23.466;2023-03-07T07:03:50;5.00;;;4.90;;
10096;SDS011;5087;42.662;23.466;2023-03-07T07:06:18;5.20;;;5.10;;
10096;SDS011;5087;42.662;23.466;2023-03-07T07:08:48;5.30;;;5.20;;
10096;SDS011;5087;42.662;23.466;2023-03-07T07:11:21;5.53;;;5.43;;
10096;SDS011;5087;42.662;23.466;2023-03-07T07:13:49;5.80;;;5.70;;
10096;SDS011;5087;42.662;23.466;2023-03-07T07:16:18;5.70;;;5.60;;
10096;SDS011;5087;42.662;23.466;2023-03-07T07:18:48;6.23;;;6.13;;
10096;SDS011;5087;42.662;23.466;2023-03-07T07:21:17;5.80;;;5.70;;
10096;SDS011;5087;42.662;23.466;2023-03-07T07:23:45;6.03;;;5.93;;
10096;SDS011;5087;42.662;23.466;2023-03-07T07:26:14;5.80;;;5.70;;
10096;SDS011;5087;42.662;23.466;2023-03-07T07:28:42;5.60;;;5.50;;
10096;SDS011;5087;42.662;23.466;2023-03-07T07:31:11;5.80;;;5.70;;
10096;SDS011;5087;42.662;23.466;2023-03-07T07:33:47;5.70;;;5.60;;
10096;SDS011;5087;42.662;23.466;2023-03-07T07:36:16;5.50;;;5.40;;
10096;SDS011;5087;42.662;23.466;2023-03-07T07:38:49;5.60;;;5.50;;
10096;SDS011;5087;42.662;23.466;2023-03-07T07:41:17;5.50;;;5.40;;
10096;SDS011;5087;42.662;23.466;2023-03-07T07:43:47;5.50;;;5.40;;
10096;SDS011;5087;42.662;23.466;2023-03-07T07:46:40;5.40;;;5.30;;
10096;SDS011;5087;42.662;23.466;2023-03-07T07:49:14;5.30;;;5.20;;
10096;SDS011;5087;42.662;23.466;2023-03-07T07:51:41;5.30;;;5.20;;
10096;SDS011;5087;42.662;23.466;2023-03-07T07:54:09;5.07;;;4.97;;
10096;SDS011;5087;42.662;23.466;2023-03-07T07:56:38;5.47;;;5.37;;
10096;SDS011;5087;42.662;23.466;2023-03-07T07:59:05;5.40;;;5.30;;
10096;SDS011;5087;42.662;23.466;2023-03-07T08:01:34;5.37;;;5.27;;
10096;SDS011;5087;42.662;23.466;2023-03-07T08:04:12;5.57;;;5.47;;
10096;SDS011;5087;42.662;23.466;2023-03-07T08:06:40;5.60;;;5.50;;
10096;SDS011;5087;42.662;23.466;2023-03-07T08:09:15;5.60;;;5.50;;
10096;SDS011;5087;42.662;23.466;2023-03-07T08:11:47;5.80;;;5.70;;
10096;SDS011;5087;42.662;23.466;2023-03-07T08:14:14;5.70;;;5.60;;
10096;SDS011;5087;42.662;23.466;2023-03-07T08:16:41;5.40;;;5.30;;
10096;SDS011;5087;42.662;23.466;2023-03-07T08:19:08;5.30;;;5.20;;
10096;SDS011;5087;42.662;23.466;2023-03-07T08:21:38;5.60;;;5.50;;
10096;SDS011;5087;42.662;23.466;2023-03-07T08:24:05;6.10;;;6.00;;
10096;SDS011;5087;42.662;23.466;2023-03-07T08:26:33;5.33;;;5.23;;
10096;SDS011;5087;42.662;23.466;2023-03-07T08:29:02;5.93;;;5.83;;
10096;SDS011;5087;42.662;23.466;2023-03-07T08:31:29;6.20;;;6.10;;
10096;SDS011;5087;42.662;23.466;2023-03-07T08:33:56;6.00;;;5.90;;
10096;SDS011;5087;42.662;23.466;2023-03-07T08:36:24;6.00;;;5.90;;
10096;SDS011;5087;42.662;23.466;2023-03-07T08:38:51;5.70;;;5.60;;
10096;SDS011;5087;42.662;23.466;2023-03-07T08:41:20;5.73;;;5.63;;
10096;SDS011;5087;42.662;23.466;2023-03-07T08:43:56;5.97;;;5.80;;
10096;SDS011;5087;42.662;23.466;2023-03-07T08:46:25;5.60;;;5.50;;
10096;SDS011;5087;42.662;23.466;2023-03-07T08:48:52;5.70;;;5.60;;
10096;SDS011;5087;42.662;23.466;2023-03-07T08:51:22;5.27;;;5.17;;
10096;SDS011;5087;42.662;23.466;2023-03-07T08:53:49;5.20;;;5.10;;
10096;SDS011;5087;42.662;23.466;2023-03-07T08:56:17;4.90;;;4.80;;
10096;SDS011;5087;42.662;23.466;2023-03-07T08:58:45;5.10;;;5.00;;
10096;SDS011;5087;42.662;23.466;2023-03-07T09:01:12;4.90;;;4.80;;
10096;SDS011;5087;42.662;23.466;2023-03-07T09:03:41;4.93;;;4.83;;
10096;SDS011;5087;42.662;23.466;2023-03-07T09:06:12;5.00;;;4.90;;
10096;SDS011;5087;42.662;23.466;2023-03-07T09:08:41;5.20;;;5.10;;
10096;SDS011;5087;42.662;23.466;2023-03-07T09:11:09;4.20;;;4.10;;
10096;SDS011;5087;42.662;23.466;2023-03-07T09:13:46;4.40;;;4.30;;
10096;SDS011;5087;42.662;23.466;2023-03-07T09:16:15;4.97;;;4.87;;
10096;SDS011;5087;42.662;23.466;2023-03-07T09:18:44;4.60;;;4.50;;
10096;SDS011;5087;42.662;23.466;2023-03-07T09:21:11;3.70;;;3.70;;
10096;SDS011;5087;42.662;23.466;2023-03-07T09:23:40;3.90;;;3.90;;
10096;SDS011;5087;42.662;23.466;2023-03-07T09:26:08;4.50;;;4.40;;
10096;SDS011;5087;42.662;23.466;2023-03-07T09:28:37;4.03;;;4.00;;
10096;SDS011;5087;42.662;23.466;2023-03-07T09:31:08;4.20;;;4.10;;
10096;SDS011;5087;42.662;23.466;2023-03-07T09:33:46;4.03;;;4.00;;
10096;SDS011;5087;42.662;23.466;2023-03-07T09:36:14;3.20;;;3.20;;
10096;SDS011;5087;42.662;23.466;2023-03-07T09:38:42;3.00;;;3.00;;
10096;SDS011;5087;42.662;23.466;2023-03-07T09:41:16;3.00;;;3.00;;
10096;SDS011;5087;42.662;23.466;2023-03-07T09:44:00;2.57;;;2.57;;
10096;SDS011;5087;42.662;23.466;2023-03-07T09:46:54;2.60;;;2.60;;
10096;SDS011;5087;42.662;23.466;2023-03-07T09:49:39;2.20;;;2.20;;
10096;SDS011;5087;42.662;23.466;2023-03-07T09:52:13;2.40;;;2.40;;
10096;SDS011;5087;42.662;23.466;2023-03-07T09:54:43;1.90;;;1.90;;
10096;SDS011;5087;42.662;23.466;2023-03-07T09:57:16;2.00;;;2.00;;
10096;SDS011;5087;42.662;23.466;2023-03-07T09:59:47;1.80;;;1.80;;
10096;SDS011;5087;42.662;23.466;2023-03-07T10:02:19;1.70;;;1.70;;
10096;SDS011;5087;42.662;23.466;2023-03-07T10:04:53;1.80;;;1.80;;
10096;SDS011;5087;42.662;23.466;2023-03-07T10:07:38;1.70;;;1.70;;
10096;SDS011;5087;42.662;23.466;2023-03-07T10:10:06;1.70;;;1.70;;
10096;SDS011;5087;42.662;23.466;2023-03-07T10:12:58;1.60;;;1.60;;
10096;SDS011;5087;42.662;23.466;2023-03-07T10:15:44;1.70;;;1.70;;
10096;SDS011;5087;42.662;23.466;2023-03-07T10:21:20;1.50;;;1.50;;
10096;SDS011;5087;42.662;23.466;2023-03-07T10:26:58;1.30;;;1.30;;
10096;SDS011;5087;42.662;23.466;2023-03-07T10:29:38;1.40;;;1.40;;
10096;SDS011;5087;42.662;23.466;2023-03-07T10:35:06;1.40;;;1.40;;
10096;SDS011;5087;42.662;23.466;2023-03-07T10:37:44;1.57;;;1.57;;
10096;SDS011;5087;42.662;23.466;2023-03-07T10:40:21;1.40;;;1.40;;
10096;SDS011;5087;42.662;23.466;2023-03-07T10:42:54;1.30;;;1.30;;
10096;SDS011;5087;42.662;23.466;2023-03-07T10:45:23;1.33;;;1.33;;
10096;SDS011;5087;42.662;23.466;2023-03-07T10:47:54;1.40;;;1.40;;
10096;SDS011;5087;42.662;23.466;2023-03-07T10:50:32;1.40;;;1.40;;
10096;SDS011;5087;42.662;23.466;2023-03-07T10:53:07;1.30;;;1.30;;
10096;SDS011;5087;42.662;23.466;2023-03-07T10:55:51;1.40;;;1.40;;
10096;SDS011;5087;42.662;23.466;2023-03-07T11:01:30;1.40;;;1.40;;
10096;SDS011;5087;42.662;23.466;2023-03-07T11:03:59;1.40;;;1.40;;
10096;SDS011;5087;42.662;23.466;2023-03-07T11:06:33;1.40;;;1.40;;
10096;SDS011;5087;42.662;23.466;2023-03-07T11:09:22;1.40;;;1.40;;
10096;SDS011;5087;42.662;23.466;2023-03-07T11:11:54;1.30;;;1.30;;
10096;SDS011;5087;42.662;23.466;2023-03-07T11:17:16;1.40;;;1.40;;
10096;SDS011;5087;42.662;23.466;2023-03-07T11:19:46;1.30;;;1.30;;
10096;SDS011;5087;42.662;23.466;2023-03-07T11:22:23;1.40;;;1.40;;
10096;SDS011;5087;42.662;23.466;2023-03-07T11:25:02;1.50;;;1.50;;
10096;SDS011;5087;42.662;23.466;2023-03-07T11:27:46;1.50;;;1.50;;
10096;SDS011;5087;42.662;23.466;2023-03-07T11:30:26;1.50;;;1.50;;
10096;SDS011;5087;42.662;23.466;2023-03-07T11:32:59;1.50;;;1.50;;
10096;SDS011;5087;42.662;23.466;2023-03-07T11:35:49;1.40;;;1.40;;
10096;SDS011;5087;42.662;23.466;2023-03-07T11:38:29;1.30;;;1.30;;
10096;SDS011;5087;42.662;23.466;2023-03-07T11:41:08;1.57;;;1.57;;
10096;SDS011;5087;42.662;23.466;2023-03-07T11:43:48;1.53;;;1.53;;
10096;SDS011;5087;42.662;23.466;2023-03-07T11:46:41;1.30;;;1.30;;
10096;SDS011;5087;42.662;23.466;2023-03-07T11:49:25;1.60;;;1.60;;
10096;SDS011;5087;42.662;23.466;2023-03-07T11:52:12;1.50;;;1.50;;
10096;SDS011;5087;42.662;23.466;2023-03-07T11:54:52;1.30;;;1.30;;
10096;SDS011;5087;42.662;23.466;2023-03-07T11:57:32;2.37;;;2.27;;
10096;SDS011;5087;42.662;23.466;2023-03-07T12:00:20;1.30;;;1.30;;
10096;SDS011;5087;42.662;23.466;2023-03-07T12:03:03;1.47;;;1.47;;
10096;SDS011;5087;42.662;23.466;2023-03-07T12:05:55;1.40;;;1.40;;
10096;SDS011;5087;42.662;23.466;2023-03-07T12:08:52;1.30;;;1.30;;
10096;SDS011;5087;42.662;23.466;2023-03-07T12:11:35;1.40;;;1.40;;
10096;SDS011;5087;42.662;23.466;2023-03-07T12:14:31;1.50;;;1.50;;
10096;SDS011;5087;42.662;23.466;2023-03-07T12:17:11;1.47;;;1.47;;
10096;SDS011;5087;42.662;23.466;2023-03-07T12:23:01;1.40;;;1.40;;
10096;SDS011;5087;42.662;23.466;2023-03-07T12:25:36;1.30;;;1.30;;
10096;SDS011;5087;42.662;23.466;2023-03-07T12:28:17;1.40;;;1.40;;
10096;SDS011;5087;42.662;23.466;2023-03-07T12:30:58;1.30;;;1.30;;
10096;SDS011;5087;42.662;23.466;2023-03-07T12:33:47;1.30;;;1.30;;
10096;SDS011;5087;42.662;23.466;2023-03-07T12:36:20;1.30;;;1.30;;
10096;SDS011;5087;42.662;23.466;2023-03-07T12:38:54;1.30;;;1.30;;
10096;SDS011;5087;42.662;23.466;2023-03-07T12:41:34;1.40;;;1.40;;
10096;SDS011;5087;42.662;23.466;2023-03-07T12:44:11;1.40;;;1.40;;
10096;SDS011;5087;42.662;23.466;2023-03-07T12:46:45;1.10;;;1.10;;
10096;SDS011;5087;42.662;23.466;2023-03-07T12:49:18;1.20;;;1.20;;
10096;SDS011;5087;42.662;23.466;2023-03-07T12:52:01;1.20;;;1.20;;
10096;SDS011;5087;42.662;23.466;2023-03-07T12:54:48;1.20;;;1.20;;
10096;SDS011;5087;42.662;23.466;2023-03-07T12:57:24;1.20;;;1.20;;
10096;SDS011;5087;42.662;23.466;2023-03-07T13:00:09;1.30;;;1.30;;
10096;SDS011;5087;42.662;23.466;2023-03-07T13:05:36;1.30;;;1.30;;
10096;SDS011;5087;42.662;23.466;2023-03-07T13:08:15;1.20;;;1.20;;
10096;SDS011;5087;42.662;23.466;2023-03-07T13:10:48;1.10;;;1.10;;
10096;SDS011;5087;42.662;23.466;2023-03-07T13:25:43;1.10;;;1.10;;
10096;SDS011;5087;42.662;23.466;2023-03-07T13:28:33;1.07;;;1.07;;
10096;SDS011;5087;42.662;23.466;2023-03-07T13:46:27;1.30;;;1.30;;
10096;SDS011;5087;42.662;23.466;2023-03-07T13:55:00;1.30;;;1.30;;
10096;SDS011;5087;42.662;23.466;2023-03-07T13:57:35;1.30;;;1.30;;
10096;SDS011;5087;42.662;23.466;2023-03-07T14:00:28;1.17;;;1.17;;
10096;SDS011;5087;42.662;23.466;2023-03-07T14:02:58;1.13;;;1.13;;
10096;SDS011;5087;42.662;23.466;2023-03-07T14:05:27;1.00;;;1.00;;
10096;SDS011;5087;42.662;23.466;2023-03-07T14:07:57;1.10;;;1.10;;
10096;SDS011;5087;42.662;23.466;2023-03-07T14:10:28;1.10;;;1.10;;
10096;SDS011;5087;42.662;23.466;2023-03-07T14:16:19;1.10;;;1.10;;
10096;SDS011;5087;42.662;23.466;2023-03-07T14:19:10;1.10;;;1.10;;
10096;SDS011;5087;42.662;23.466;2023-03-07T14:21:53;1.20;;;1.20;;
10096;SDS011;5087;42.662;23.466;2023-03-07T14:24:37;1.10;;;1.10;;
10096;SDS011;5087;42.662;23.466;2023-03-07T14:27:14;1.10;;;1.10;;
10096;SDS011;5087;42.662;23.466;2023-03-07T14:29:49;1.00;;;1.00;;
10096;SDS011;5087;42.662;23.466;2023-03-07T14:32:25;0.93;;;0.93;;
10096;SDS011;5087;42.662;23.466;2023-03-07T14:34:57;1.00;;;1.00;;
10096;SDS011;5087;42.662;23.466;2023-03-07T14:37:25;1.10;;;1.10;;
10096;SDS011;5087;42.662;23.466;2023-03-07T14:40:00;1.00;;;1.00;;
10096;SDS011;5087;42.662;23.466;2023-03-07T14:42:40;1.00;;;1.00;;
10096;SDS011;5087;42.662;23.466;2023-03-07T14:45:15;1.10;;;1.10;;
10096;SDS011;5087;42.662;23.466;2023-03-07T14:47:57;1.00;;;1.00;;
10096;SDS011;5087;42.662;23.466;2023-03-07T14:50:49;1.20;;;1.20;;
10096;SDS011;5087;42.662;23.466;2023-03-07T14:53:19;4.90;;;2.23;;
10096;SDS011;5087;42.662;23.466;2023-03-07T14:55:53;1.10;;;1.10;;
10096;SDS011;5087;42.662;23.466;2023-03-07T14:58:25;1.10;;;1.10;;
10096;SDS011;5087;42.662;23.466;2023-03-07T15:00:56;1.20;;;1.20;;
10096;SDS011;5087;42.662;23.466;2023-03-07T15:03:25;1.00;;;1.00;;
10096;SDS011;5087;42.662;23.466;2023-03-07T15:05:53;0.90;;;0.90;;
10096;SDS011;5087;42.662;23.466;2023-03-07T15:08:28;0.80;;;0.80;;
10096;SDS011;5087;42.662;23.466;2023-03-07T15:10:58;1.00;;;1.00;;
10096;SDS011;5087;42.662;23.466;2023-03-07T15:13:34;1.10;;;1.10;;
10096;SDS011;5087;42.662;23.466;2023-03-07T15:16:07;1.20;;;1.20;;
10096;SDS011;5087;42.662;23.466;2023-03-07T15:18:42;1.00;;;1.00;;
10096;SDS011;5087;42.662;23.466;2023-03-07T15:21:14;1.10;;;1.10;;
10096;SDS011;5087;42.662;23.466;2023-03-07T15:23:49;0.90;;;0.90;;
10096;SDS011;5087;42.662;23.466;2023-03-07T15:26:24;0.90;;;0.90;;
10096;SDS011;5087;42.662;23.466;2023-03-07T15:28:58;1.00;;;1.00;;
10096;SDS011;5087;42.662;23.466;2023-03-07T15:31:30;1.00;;;1.00;;
10096;SDS011;5087;42.662;23.466;2023-03-07T15:34:19;1.10;;;1.10;;
10096;SDS011;5087;42.662;23.466;2023-03-07T15:36:53;1.00;;;1.00;;
10096;SDS011;5087;42.662;23.466;2023-03-07T15:39:22;1.00;;;1.00;;
10096;SDS011;5087;42.662;23.466;2023-03-07T15:42:02;1.10;;;1.10;;
10096;SDS011;5087;42.662;23.466;2023-03-07T15:44:32;0.90;;;0.90;;
10096;SDS011;5087;42.662;23.466;2023-03-07T15:47:04;0.90;;;0.90;;
10096;SDS011;5087;42.662;23.466;2023-03-07T15:49:41;1.77;;;1.77;;
10096;SDS011;5087;42.662;23.466;2023-03-07T15:52:23;0.90;;;0.90;;
10096;SDS011;5087;42.662;23.466;2023-03-07T15:54:54;1.03;;;1.03;;
10096;SDS011;5087;42.662;23.466;2023-03-07T15:57:23;0.90;;;0.90;;
10096;SDS011;5087;42.662;23.466;2023-03-07T15:59:54;0.90;;;0.90;;
10096;SDS011;5087;42.662;23.466;2023-03-07T16:02:30;0.90;;;0.90;;
10096;SDS011;5087;42.662;23.466;2023-03-07T16:05:35;1.00;;;1.00;;
10096;SDS011;5087;42.662;23.466;2023-03-07T16:08:12;0.97;;;0.97;;
10096;SDS011;5087;42.662;23.466;2023-03-07T16:10:44;1.00;;;1.00;;
10096;SDS011;5087;42.662;23.466;2023-03-07T16:13:14;0.80;;;0.80;;
10096;SDS011;5087;42.662;23.466;2023-03-07T16:16:01;1.00;;;1.00;;
10096;SDS011;5087;42.662;23.466;2023-03-07T16:18:39;0.90;;;0.90;;